Time,TemperatureF,DewpointF,PressureIn,WindDirection,WindDirectionDegrees,WindSpeedMPH,WindSpeedGustMPH,Humidity,HourlyPrecipIn,Conditions,Clouds,dailyrainin,SoftwareType,DateUTC
2013-04-06 00:02:00,51.0,33.0,29.88,SE,128,5.0,11.0,49,0.00,,,0.00,,2013-04-06 05:02:00,
2013-04-06 00:13:00,51.0,33.0,29.88,SE,128,5.0,11.0,49,0.00,,,0.00,,2013-04-06 05:13:00,
2013-04-06 00:22:00,52.0,32.0,29.87,ESE,121,8.0,11.0,47,0.00,,,0.00,,2013-04-06 05:22:00,
2013-04-06 00:32:00,53.0,33.0,29.87,SE,124,7.0,13.0,47,0.00,,,0.00,,2013-04-06 05:32:00,
2013-04-06 00:43:00,53.0,33.0,29.87,SE,124,7.0,13.0,47,0.00,,,0.00,,2013-04-06 05:43:00,
2013-04-06 00:52:00,53.0,33.0,29.86,SE,126,7.0,12.0,47,0.00,,,0.00,,2013-04-06 05:52:00,
2013-04-06 01:02:00,53.0,33.0,29.85,SE,129,9.0,13.0,47,0.00,,,0.00,,2013-04-06 06:02:00,
2013-04-06 01:12:00,53.0,33.0,29.85,SE,129,9.0,13.0,47,0.00,,,0.00,,2013-04-06 06:12:00,
2013-04-06 01:22:00,54.0,33.0,29.85,SE,128,9.0,15.0,45,0.00,,,0.00,,2013-04-06 06:22:00,
2013-04-06 01:32:00,54.0,34.0,29.85,ESE,121,10.0,14.0,46,0.00,,,0.00,,2013-04-06 06:32:00,
2013-04-06 01:42:00,54.0,34.0,29.85,ESE,121,10.0,14.0,46,0.00,,,0.00,,2013-04-06 06:42:00,
2013-04-06 01:53:00,54.0,34.0,29.85,SE,129,9.0,15.0,47,0.00,,,0.00,,2013-04-06 06:53:00,
2013-04-06 02:03:00,54.0,34.0,29.85,SE,126,11.0,17.0,47,0.00,,,0.00,,2013-04-06 07:03:00,
2013-04-06 02:12:00,54.0,34.0,29.85,SE,126,11.0,17.0,47,0.00,,,0.00,,2013-04-06 07:12:00,
2013-04-06 02:22:00,53.0,34.0,29.84,SE,126,10.0,16.0,49,0.00,,,0.00,,2013-04-06 07:22:00,
2013-04-06 02:33:00,53.0,34.0,29.84,ESE,121,9.0,17.0,49,0.00,,,0.00,,2013-04-06 07:33:00,
2013-04-06 02:43:00,53.0,34.0,29.84,ESE,121,9.0,17.0,49,0.00,,,0.00,,2013-04-06 07:43:00,
2013-04-06 02:53:00,53.0,35.0,29.83,SE,135,8.0,16.0,50,0.00,,,0.00,,2013-04-06 07:53:00,
2013-04-06 03:02:00,53.0,35.0,29.83,SE,128,9.0,15.0,50,0.00,,,0.00,,2013-04-06 08:02:00,
2013-04-06 03:12:00,53.0,35.0,29.83,SE,128,9.0,15.0,50,0.00,,,0.00,,2013-04-06 08:12:00,
2013-04-06 03:22:00,53.0,35.0,29.82,SE,131,7.0,15.0,51,0.00,,,0.00,,2013-04-06 08:22:00,
2013-04-06 03:32:00,53.0,35.0,29.81,SE,133,7.0,13.0,51,0.00,,,0.00,,2013-04-06 08:32:00,
2013-04-06 03:42:00,53.0,35.0,29.81,SE,133,7.0,13.0,51,0.00,,,0.00,,2013-04-06 08:42:00,
2013-04-06 03:52:00,53.0,35.0,29.81,SE,126,8.0,13.0,51,0.00,,,0.00,,2013-04-06 08:52:00,
2013-04-06 04:02:00,53.0,35.0,29.79,SE,128,11.0,15.0,51,0.00,,,0.00,,2013-04-06 09:02:00,
2013-04-06 04:12:00,53.0,35.0,29.79,SE,128,11.0,15.0,51,0.00,,,0.00,,2013-04-06 09:12:00,
2013-04-06 04:22:00,53.0,36.0,29.78,SE,129,11.0,19.0,53,0.00,,,0.00,,2013-04-06 09:22:00,
2013-04-06 04:32:00,53.0,36.0,29.80,ESE,123,5.0,14.0,52,0.00,,,0.00,,2013-04-06 09:32:00,
2013-04-06 04:43:00,53.0,36.0,29.80,ESE,123,5.0,14.0,52,0.00,,,0.00,,2013-04-06 09:43:00,
2013-04-06 04:52:00,53.0,36.0,29.79,SE,131,8.0,14.0,52,0.00,,,0.00,,2013-04-06 09:52:00,
2013-04-06 05:03:00,52.0,36.0,29.78,SE,127,8.0,13.0,54,0.00,,,0.00,,2013-04-06 10:03:00,
2013-04-06 05:13:00,52.0,36.0,29.78,SE,127,8.0,13.0,54,0.00,,,0.00,,2013-04-06 10:13:00,
2013-04-06 05:22:00,52.0,36.0,29.77,SE,128,9.0,14.0,54,0.00,,,0.00,,2013-04-06 10:22:00,
2013-04-06 05:33:00,52.0,36.0,29.77,ESE,122,8.0,14.0,55,0.00,,,0.00,,2013-04-06 10:33:00,
2013-04-06 05:42:00,52.0,36.0,29.77,ESE,122,8.0,14.0,55,0.00,,,0.00,,2013-04-06 10:42:00,
2013-04-06 05:52:00,52.0,36.0,29.76,ESE,119,9.0,14.0,55,0.00,,,0.00,,2013-04-06 10:52:00,
2013-04-06 06:02:00,52.0,36.0,29.76,ESE,119,9.0,14.0,55,0.00,,,0.00,,2013-04-06 11:02:00,
2013-04-06 06:12:00,52.0,36.0,29.76,ESE,119,9.0,14.0,55,0.00,,,0.00,,2013-04-06 11:12:00,
2013-04-06 06:22:00,52.0,37.0,29.74,ESE,114,11.0,19.0,56,0.00,,,0.00,,2013-04-06 11:22:00,
2013-04-06 06:33:00,52.0,37.0,29.73,SE,127,10.0,16.0,56,0.00,,,0.00,,2013-04-06 11:33:00,
2013-04-06 06:43:00,52.0,37.0,29.73,SE,127,10.0,16.0,56,0.00,,,0.00,,2013-04-06 11:43:00,
2013-04-06 06:52:00,52.0,37.0,29.73,SE,135,7.0,16.0,56,0.00,,,0.00,,2013-04-06 11:52:00,
2013-04-06 07:02:00,52.0,37.0,29.72,SE,130,8.0,14.0,57,0.00,,,0.00,,2013-04-06 12:02:00,
2013-04-06 07:12:00,52.0,37.0,29.72,SE,130,8.0,14.0,57,0.00,,,0.00,,2013-04-06 12:12:00,
2013-04-06 07:22:00,52.0,37.0,29.71,SE,129,8.0,14.0,57,0.00,,,0.00,,2013-04-06 12:22:00,
2013-04-06 07:32:00,54.0,38.0,29.71,SE,140,8.0,14.0,54,0.00,,,0.00,,2013-04-06 12:32:00,
2013-04-06 07:43:00,54.0,38.0,29.71,SE,140,8.0,14.0,54,0.00,,,0.00,,2013-04-06 12:43:00,
2013-04-06 07:52:00,54.0,38.0,29.72,SE,141,7.0,14.0,54,0.00,,,0.00,,2013-04-06 12:52:00,
2013-04-06 08:03:00,54.0,38.0,29.72,SE,139,7.0,12.0,54,0.00,,,0.00,,2013-04-06 13:03:00,
2013-04-06 08:12:00,54.0,38.0,29.72,SE,139,7.0,12.0,54,0.00,,,0.00,,2013-04-06 13:12:00,
2013-04-06 08:23:00,54.0,38.0,29.72,SE,138,5.0,11.0,55,0.00,,,0.00,,2013-04-06 13:23:00,
2013-04-06 08:32:00,55.0,38.0,29.71,SE,141,5.0,13.0,53,0.00,,,0.00,,2013-04-06 13:32:00,
2013-04-06 08:42:00,55.0,38.0,29.71,SE,141,5.0,13.0,53,0.00,,,0.00,,2013-04-06 13:42:00,
2013-04-06 08:52:00,57.0,39.0,29.70,SSE,161,7.0,13.0,51,0.00,,,0.00,,2013-04-06 13:52:00,
2013-04-06 09:04:00,59.0,39.0,29.68,South,171,12.0,24.0,48,0.00,,,0.00,,2013-04-06 14:04:00,
2013-04-06 09:12:00,60.0,40.0,29.67,SSE,158,11.0,20.0,47,0.00,,,0.00,,2013-04-06 14:12:00,
2013-04-06 09:22:00,60.0,40.0,29.67,SSE,158,11.0,20.0,47,0.00,,,0.00,,2013-04-06 14:22:00,
2013-04-06 09:32:00,60.0,40.0,29.66,SSW,199,12.0,19.0,47,0.00,,,0.00,,2013-04-06 14:32:00,
2013-04-06 09:42:00,60.0,40.0,29.66,SSW,199,12.0,19.0,47,0.00,,,0.00,,2013-04-06 14:42:00,
2013-04-06 09:53:00,61.0,41.0,29.65,SSW,205,14.0,28.0,47,0.00,,,0.00,,2013-04-06 14:53:00,
2013-04-06 10:02:00,61.0,41.0,29.65,SSW,194,10.0,25.0,47,0.00,,,0.00,,2013-04-06 15:02:00,
2013-04-06 10:12:00,61.0,41.0,29.65,SSW,194,10.0,25.0,47,0.00,,,0.00,,2013-04-06 15:12:00,
2013-04-06 10:22:00,60.0,40.0,29.65,SSW,192,15.0,21.0,48,0.00,,,0.00,,2013-04-06 15:22:00,
2013-04-06 10:33:00,60.0,41.0,29.65,SSW,203,13.0,22.0,49,0.00,,,0.00,,2013-04-06 15:33:00,
2013-04-06 10:43:00,60.0,41.0,29.65,SSW,203,13.0,22.0,49,0.00,,,0.00,,2013-04-06 15:43:00,
2013-04-06 10:53:00,60.0,41.0,29.65,SSW,201,12.0,21.0,50,0.00,,,0.00,,2013-04-06 15:53:00,
2013-04-06 11:04:00,60.0,41.0,29.65,SSW,201,12.0,21.0,50,0.00,,,0.00,,2013-04-06 16:04:00,
2013-04-06 11:17:00,60.0,41.0,29.65,SSW,201,12.0,21.0,50,0.00,,,0.00,,2013-04-06 16:17:00,
2013-04-06 11:23:00,60.0,41.0,29.63,SSW,199,13.0,24.0,50,0.00,,,0.00,,2013-04-06 16:23:00,
2013-04-06 11:32:00,61.0,42.0,29.63,South,182,14.0,24.0,50,0.00,,,0.00,,2013-04-06 16:32:00,
2013-04-06 11:43:00,61.0,42.0,29.63,South,182,14.0,24.0,50,0.00,,,0.00,,2013-04-06 16:43:00,
2013-04-06 11:53:00,62.0,43.0,29.62,SW,229,15.0,22.0,50,0.00,,,0.00,,2013-04-06 16:53:00,
2013-04-06 12:02:00,63.0,44.0,29.62,SSW,204,12.0,23.0,49,0.00,,,0.00,,2013-04-06 17:02:00,
2013-04-06 12:12:00,63.0,44.0,29.62,SSW,204,12.0,23.0,49,0.00,,,0.00,,2013-04-06 17:12:00,
2013-04-06 12:22:00,63.0,44.0,29.61,SSW,198,13.0,21.0,50,0.00,,,0.00,,2013-04-06 17:22:00,
2013-04-06 12:32:00,63.0,44.0,29.61,South,181,13.0,25.0,50,0.00,,,0.00,,2013-04-06 17:32:00,
2013-04-06 12:42:00,63.0,44.0,29.61,South,181,13.0,25.0,50,0.00,,,0.00,,2013-04-06 17:42:00,
2013-04-06 12:52:00,64.0,45.0,29.60,SW,228,12.0,28.0,50,0.00,,,0.00,,2013-04-06 17:52:00,
2013-04-06 13:02:00,64.0,44.0,29.60,WSW,250,11.0,25.0,49,0.00,,,0.00,,2013-04-06 18:02:00,
2013-04-06 13:12:00,64.0,44.0,29.60,WSW,250,11.0,25.0,49,0.00,,,0.00,,2013-04-06 18:12:00,
2013-04-06 13:23:00,64.0,45.0,29.60,SSW,211,12.0,20.0,50,0.00,,,0.00,,2013-04-06 18:23:00,
2013-04-06 13:32:00,64.0,45.0,29.59,SW,233,9.0,25.0,51,0.00,,,0.00,,2013-04-06 18:32:00,
2013-04-06 13:42:00,64.0,45.0,29.59,SW,233,9.0,25.0,51,0.00,,,0.00,,2013-04-06 18:42:00,
2013-04-06 13:52:00,64.0,45.0,29.59,SW,225,12.0,24.0,51,0.00,,,0.00,,2013-04-06 18:52:00,
2013-04-06 14:02:00,64.0,45.0,29.59,SW,231,12.0,20.0,51,0.00,,,0.00,,2013-04-06 19:02:00,
2013-04-06 14:12:00,64.0,45.0,29.59,SW,231,12.0,20.0,51,0.00,,,0.00,,2013-04-06 19:12:00,
2013-04-06 14:22:00,64.0,46.0,29.59,SW,214,10.0,18.0,52,0.00,,,0.00,,2013-04-06 19:22:00,
2013-04-06 14:32:00,64.0,47.0,29.58,SW,226,10.0,19.0,53,0.00,,,0.00,,2013-04-06 19:32:00,
2013-04-06 14:42:00,64.0,47.0,29.58,SW,226,10.0,19.0,53,0.00,,,0.00,,2013-04-06 19:42:00,
2013-04-06 15:02:00,65.0,47.0,29.58,SW,223,7.0,16.0,52,0.00,,,0.00,,2013-04-06 20:02:00,
2013-04-06 15:12:00,65.0,47.0,29.58,SW,223,7.0,16.0,52,0.00,,,0.00,,2013-04-06 20:12:00,
2013-04-06 15:22:00,65.0,46.0,29.57,WSW,244,10.0,20.0,51,0.00,,,0.00,,2013-04-06 20:22:00,
2013-04-06 15:32:00,65.0,47.0,29.57,SW,231,8.0,18.0,52,0.00,,,0.00,,2013-04-06 20:32:00,
2013-04-06 15:42:00,65.0,47.0,29.57,SW,231,8.0,18.0,52,0.00,,,0.00,,2013-04-06 20:42:00,
2013-04-06 15:52:00,65.0,47.0,29.57,SW,222,6.0,20.0,52,0.00,,,0.00,,2013-04-06 20:52:00,
2013-04-06 16:02:00,67.0,48.0,29.55,WSW,241,10.0,25.0,50,0.00,,,0.00,,2013-04-06 21:02:00,
2013-04-06 16:13:00,66.0,47.0,29.56,SW,230,9.0,19.0,50,0.00,,,0.00,,2013-04-06 21:13:00,
2013-04-06 16:22:00,66.0,47.0,29.56,SW,230,9.0,19.0,50,0.00,,,0.00,,2013-04-06 21:22:00,
2013-04-06 16:33:00,66.0,47.0,29.56,SSW,202,6.0,17.0,51,0.00,,,0.00,,2013-04-06 21:33:00,
2013-04-06 16:43:00,66.0,47.0,29.56,SSW,202,6.0,17.0,51,0.00,,,0.00,,2013-04-06 21:43:00,
2013-04-06 16:53:00,66.0,47.0,29.55,SW,229,6.0,14.0,51,0.00,,,0.00,,2013-04-06 21:53:00,
2013-04-06 17:03:00,66.0,48.0,29.55,SW,231,6.0,14.0,52,0.00,,,0.00,,2013-04-06 22:03:00,
2013-04-06 17:13:00,66.0,48.0,29.55,SW,231,6.0,14.0,52,0.00,,,0.00,,2013-04-06 22:13:00,
2013-04-06 17:23:00,66.0,49.0,29.56,SW,215,6.0,11.0,54,0.00,,,0.00,,2013-04-06 22:23:00,
2013-04-06 17:34:00,65.0,48.0,29.57,SW,225,12.0,17.0,54,0.00,,,0.00,,2013-04-06 22:34:00,
2013-04-06 17:43:00,65.0,48.0,29.57,SW,225,12.0,17.0,54,0.00,,,0.00,,2013-04-06 22:43:00,
2013-04-06 17:53:00,65.0,49.0,29.58,WNW,292,11.0,19.0,56,0.00,,,0.00,,2013-04-06 22:53:00,
2013-04-06 18:03:00,60.0,47.0,29.60,WNW,297,4.0,9.0,63,0.00,,,0.00,,2013-04-06 23:03:00,
2013-04-06 18:13:00,60.0,47.0,29.60,WNW,297,4.0,9.0,63,0.00,,,0.00,,2013-04-06 23:13:00,
2013-04-06 18:23:00,61.0,48.0,29.61,WNW,296,6.0,9.0,62,0.00,,,0.00,,2013-04-06 23:23:00,
2013-04-06 18:34:00,63.0,47.0,29.61,WNW,293,4.0,12.0,56,0.00,,,0.00,,2013-04-06 23:34:00,
2013-04-06 18:42:00,63.0,47.0,29.61,WNW,293,4.0,12.0,56,0.00,,,0.00,,2013-04-06 23:42:00,
2013-04-06 18:53:00,62.0,46.0,29.62,NW,306,3.0,9.0,56,0.00,,,0.00,,2013-04-06 23:53:00,
2013-04-06 19:02:00,61.0,46.0,29.62,WNW,293,7.0,10.0,58,0.00,,,0.00,,2013-04-07 00:02:00,
2013-04-06 19:12:00,61.0,46.0,29.62,WNW,293,7.0,10.0,58,0.00,,,0.00,,2013-04-07 00:12:00,
2013-04-06 19:22:00,62.0,46.0,29.64,WNW,297,10.0,16.0,56,0.00,,,0.00,,2013-04-07 00:22:00,
2013-04-06 19:32:00,61.0,44.0,29.64,WNW,289,7.0,17.0,54,0.00,,,0.00,,2013-04-07 00:32:00,
2013-04-06 19:42:00,61.0,44.0,29.64,WNW,289,7.0,17.0,54,0.00,,,0.00,,2013-04-07 00:42:00,
2013-04-06 19:53:00,60.0,44.0,29.65,WNW,297,8.0,17.0,55,0.00,,,0.00,,2013-04-07 00:53:00,
2013-04-06 20:02:00,58.0,42.0,29.66,WNW,293,5.0,13.0,56,0.00,,,0.00,,2013-04-07 01:02:00,
2013-04-06 20:12:00,58.0,42.0,29.66,WNW,293,5.0,13.0,56,0.00,,,0.00,,2013-04-07 01:12:00,
2013-04-06 20:23:00,57.0,42.0,29.67,WNW,296,5.0,11.0,58,0.00,,,0.00,,2013-04-07 01:23:00,
2013-04-06 20:32:00,56.0,42.0,29.68,WNW,295,3.0,6.0,60,0.00,,,0.00,,2013-04-07 01:32:00,
2013-04-06 20:42:00,56.0,42.0,29.68,WNW,295,3.0,6.0,60,0.00,,,0.00,,2013-04-07 01:42:00,
2013-04-06 20:53:00,55.0,42.0,29.69,WNW,287,2.0,4.0,61,0.00,,,0.00,,2013-04-07 01:53:00,
2013-04-06 21:03:00,55.0,42.0,29.69,West,277,2.0,4.0,62,0.00,,,0.00,,2013-04-07 02:03:00,
2013-04-06 21:12:00,55.0,42.0,29.69,West,277,2.0,4.0,62,0.00,,,0.00,,2013-04-07 02:12:00,
2013-04-06 21:23:00,52.0,41.0,29.70,WNW,291,2.0,4.0,67,0.00,,,0.00,,2013-04-07 02:23:00,
2013-04-06 21:32:00,52.0,41.0,29.71,WNW,299,2.0,4.0,67,0.00,,,0.00,,2013-04-07 02:32:00,
2013-04-06 21:42:00,52.0,41.0,29.71,WNW,299,2.0,4.0,67,0.00,,,0.00,,2013-04-07 02:42:00,
2013-04-06 21:52:00,52.0,41.0,29.72,WNW,297,2.0,4.0,67,0.00,,,0.00,,2013-04-07 02:52:00,
2013-04-06 22:02:00,51.0,41.0,29.72,North,0,0.0,2.0,68,0.00,,,0.00,,2013-04-07 03:02:00,
2013-04-06 22:12:00,51.0,41.0,29.72,North,0,0.0,2.0,68,0.00,,,0.00,,2013-04-07 03:12:00,
2013-04-06 22:22:00,49.0,40.0,29.73,North,0,0.0,3.0,71,0.00,,,0.00,,2013-04-07 03:22:00,
2013-04-06 22:43:00,47.0,39.0,29.74,North,0,0.0,1.0,74,0.00,,,0.00,,2013-04-07 03:43:00,
2013-04-06 22:54:00,46.0,40.0,29.75,North,0,0.0,0.0,78,0.00,,,0.00,,2013-04-07 03:54:00,
2013-04-06 23:03:00,46.0,40.0,29.75,North,0,0.0,0.0,79,0.00,,,0.00,,2013-04-07 04:03:00,
2013-04-06 23:13:00,46.0,40.0,29.75,North,0,0.0,0.0,79,0.00,,,0.00,,2013-04-07 04:13:00,
2013-04-06 23:23:00,45.0,40.0,29.75,North,0,0.0,1.0,82,0.00,,,0.00,,2013-04-07 04:23:00,
2013-04-06 23:32:00,44.0,39.0,29.76,North,0,0.0,0.0,84,0.00,,,0.00,,2013-04-07 04:32:00,
2013-04-06 23:43:00,44.0,39.0,29.76,North,0,0.0,0.0,84,0.00,,,0.00,,2013-04-07 04:43:00,
2013-04-06 23:53:00,44.0,40.0,29.76,North,0,0.0,0.0,85,0.00,,,0.00,,2013-04-07 04:53:00,